sensor_id;sensor_type;location;lat;lon;timestamp;temperature;humidity
14741;DHT22;7462;53.530;9.414;2023-05-07T00:01:40;9.90;99.90
14741;DHT22;7462;53.530;9.414;2023-05-07T00:04:08;9.80;99.90
14741;DHT22;7462;53.530;9.414;2023-05-07T00:06:37;9.80;99.90
14741;DHT22;7462;53.530;9.414;2023-05-07T00:09:05;9.70;99.90
14741;DHT22;7462;53.530;9.414;2023-05-07T00:11:33;9.80;99.90
14741;DHT22;7462;53.530;9.414;2023-05-07T00:14:03;9.80;99.90
14741;DHT22;7462;53.530;9.414;2023-05-07T00:16:31;9.80;99.90
14741;DHT22;7462;53.530;9.414;2023-05-07T00:19:00;9.70;99.90
14741;DHT22;7462;53.530;9.414;2023-05-07T00:21:29;9.70;99.90
14741;DHT22;7462;53.530;9.414;2023-05-07T00:23:57;9.70;99.90
14741;DHT22;7462;53.530;9.414;2023-05-07T00:26:25;9.60;99.90
14741;DHT22;7462;53.530;9.414;2023-05-07T00:28:53;9.60;99.90
14741;DHT22;7462;53.530;9.414;2023-05-07T00:31:21;9.60;99.90
14741;DHT22;7462;53.530;9.414;2023-05-07T00:33:49;9.60;99.90
14741;DHT22;7462;53.530;9.414;2023-05-07T00:36:18;9.50;99.90
14741;DHT22;7462;53.530;9.414;2023-05-07T00:38:47;9.50;99.90
14741;DHT22;7462;53.530;9.414;2023-05-07T00:41:15;9.50;99.90
14741;DHT22;7462;53.530;9.414;2023-05-07T00:43:43;9.50;99.90
14741;DHT22;7462;53.530;9.414;2023-05-07T00:46:11;9.50;99.90
14741;DHT22;7462;53.530;9.414;2023-05-07T00:48:41;9.50;99.90
14741;DHT22;7462;53.530;9.414;2023-05-07T00:51:09;9.50;99.90
14741;DHT22;7462;53.530;9.414;2023-05-07T00:53:39;9.40;99.90
14741;DHT22;7462;53.530;9.414;2023-05-07T00:56:08;9.40;99.90
14741;DHT22;7462;53.530;9.414;2023-05-07T00:58:36;9.30;99.90
14741;DHT22;7462;53.530;9.414;2023-05-07T01:01:04;9.30;99.90
14741;DHT22;7462;53.530;9.414;2023-05-07T01:03:33;9.30;99.90
14741;DHT22;7462;53.530;9.414;2023-05-07T01:06:03;9.30;99.90
14741;DHT22;7462;53.530;9.414;2023-05-07T01:08:33;9.30;99.90
14741;DHT22;7462;53.530;9.414;2023-05-07T01:11:03;9.20;99.90
14741;DHT22;7462;53.530;9.414;2023-05-07T01:13:31;9.30;99.90
14741;DHT22;7462;53.530;9.414;2023-05-07T01:16:00;9.30;99.90
14741;DHT22;7462;53.530;9.414;2023-05-07T01:18:28;9.30;99.90
14741;DHT22;7462;53.530;9.414;2023-05-07T01:20:58;9.30;99.90
14741;DHT22;7462;53.530;9.414;2023-05-07T01:23:29;9.30;99.90
14741;DHT22;7462;53.530;9.414;2023-05-07T01:25:58;9.30;99.90
14741;DHT22;7462;53.530;9.414;2023-05-07T01:28:27;9.30;99.90
14741;DHT22;7462;53.530;9.414;2023-05-07T01:31:01;9.30;99.90
14741;DHT22;7462;53.530;9.414;2023-05-07T01:33:34;9.30;99.90
14741;DHT22;7462;53.530;9.414;2023-05-07T01:36:04;9.30;99.90
14741;DHT22;7462;53.530;9.414;2023-05-07T01:38:35;9.30;99.90
14741;DHT22;7462;53.530;9.414;2023-05-07T01:41:04;9.30;99.90
14741;DHT22;7462;53.530;9.414;2023-05-07T01:43:33;9.40;99.90
14741;DHT22;7462;53.530;9.414;2023-05-07T01:46:05;9.40;99.90
14741;DHT22;7462;53.530;9.414;2023-05-07T01:48:34;9.40;99.90
14741;DHT22;7462;53.530;9.414;2023-05-07T01:51:02;9.30;99.90
14741;DHT22;7462;53.530;9.414;2023-05-07T01:53:36;9.30;99.90
14741;DHT22;7462;53.530;9.414;2023-05-07T01:56:05;9.30;99.90
14741;DHT22;7462;53.530;9.414;2023-05-07T01:58:36;9.30;99.90
14741;DHT22;7462;53.530;9.414;2023-05-07T02:01:04;9.30;99.90
14741;DHT22;7462;53.530;9.414;2023-05-07T02:03:32;9.30;99.90
14741;DHT22;7462;53.530;9.414;2023-05-07T02:06:07;9.30;99.90
14741;DHT22;7462;53.530;9.414;2023-05-07T02:08:39;9.30;99.90
14741;DHT22;7462;53.530;9.414;2023-05-07T02:11:09;9.30;99.90
14741;DHT22;7462;53.530;9.414;2023-05-07T02:13:37;9.40;99.90
14741;DHT22;7462;53.530;9.414;2023-05-07T02:16:05;9.30;99.90
14741;DHT22;7462;53.530;9.414;2023-05-07T02:18:33;9.30;99.90
14741;DHT22;7462;53.530;9.414;2023-05-07T02:21:02;9.30;99.90
14741;DHT22;7462;53.530;9.414;2023-05-07T02:23:30;9.20;99.90
14741;DHT22;7462;53.530;9.414;2023-05-07T02:26:00;9.20;99.90
14741;DHT22;7462;53.530;9.414;2023-05-07T02:28:29;9.30;99.90
14741;DHT22;7462;53.530;9.414;2023-05-07T02:31:00;9.20;99.90
14741;DHT22;7462;53.530;9.414;2023-05-07T02:33:29;9.20;99.90
14741;DHT22;7462;53.530;9.414;2023-05-07T02:36:05;9.20;99.90
14741;DHT22;7462;53.530;9.414;2023-05-07T02:38:35;9.20;99.90
14741;DHT22;7462;53.530;9.414;2023-05-07T02:41:09;9.30;99.90
14741;DHT22;7462;53.530;9.414;2023-05-07T02:43:37;9.30;99.90
14741;DHT22;7462;53.530;9.414;2023-05-07T02:46:07;9.30;99.90
14741;DHT22;7462;53.530;9.414;2023-05-07T02:48:40;9.20;99.90
14741;DHT22;7462;53.530;9.414;2023-05-07T02:51:08;9.20;99.90
14741;DHT22;7462;53.530;9.414;2023-05-07T02:53:38;9.10;99.90
14741;DHT22;7462;53.530;9.414;2023-05-07T02:56:07;9.20;99.90
14741;DHT22;7462;53.530;9.414;2023-05-07T02:58:36;9.20;99.90
14741;DHT22;7462;53.530;9.414;2023-05-07T03:01:06;9.10;99.90
14741;DHT22;7462;53.530;9.414;2023-05-07T03:03:47;9.10;99.90
14741;DHT22;7462;53.530;9.414;2023-05-07T03:06:15;9.20;99.90
14741;DHT22;7462;53.530;9.414;2023-05-07T03:08:43;9.10;99.90
14741;DHT22;7462;53.530;9.414;2023-05-07T03:11:11;9.20;99.90
14741;DHT22;7462;53.530;9.414;2023-05-07T03:13:41;9.10;99.90
14741;DHT22;7462;53.530;9.414;2023-05-07T03:16:09;9.10;99.90
14741;DHT22;7462;53.530;9.414;2023-05-07T03:18:37;9.20;99.90
14741;DHT22;7462;53.530;9.414;2023-05-07T03:21:05;9.10;99.90
14741;DHT22;7462;53.530;9.414;2023-05-07T03:23:34;9.10;99.90
14741;DHT22;7462;53.530;9.414;2023-05-07T03:26:02;9.10;99.90
14741;DHT22;7462;53.530;9.414;2023-05-07T03:28:30;9.20;99.90
14741;DHT22;7462;53.530;9.414;2023-05-07T03:31:03;9.20;99.90
14741;DHT22;7462;53.530;9.414;2023-05-07T03:33:33;9.10;99.90
14741;DHT22;7462;53.530;9.414;2023-05-07T03:36:02;9.20;99.90
14741;DHT22;7462;53.530;9.414;2023-05-07T03:38:30;9.20;99.90
14741;DHT22;7462;53.530;9.414;2023-05-07T03:41:01;9.20;99.90
14741;DHT22;7462;53.530;9.414;2023-05-07T03:43:29;9.20;99.90
14741;DHT22;7462;53.530;9.414;2023-05-07T03:46:04;9.20;99.90
14741;DHT22;7462;53.530;9.414;2023-05-07T03:48:33;9.20;99.90
14741;DHT22;7462;53.530;9.414;2023-05-07T03:51:01;9.20;99.90
14741;DHT22;7462;53.530;9.414;2023-05-07T03:53:32;9.20;99.90
14741;DHT22;7462;53.530;9.414;2023-05-07T03:56:00;9.20;99.90
14741;DHT22;7462;53.530;9.414;2023-05-07T03:58:32;9.20;99.90
14741;DHT22;7462;53.530;9.414;2023-05-07T04:01:06;9.20;99.90
14741;DHT22;7462;53.530;9.414;2023-05-07T04:03:34;9.20;99.90
14741;DHT22;7462;53.530;9.414;2023-05-07T04:06:04;9.20;99.90
14741;DHT22;7462;53.530;9.414;2023-05-07T04:08:34;9.20;99.90
14741;DHT22;7462;53.530;9.414;2023-05-07T04:11:03;9.20;99.90
14741;DHT22;7462;53.530;9.414;2023-05-07T04:13:34;9.20;99.90
14741;DHT22;7462;53.530;9.414;2023-05-07T04:16:06;9.20;99.90
14741;DHT22;7462;53.530;9.414;2023-05-07T04:18:36;9.20;99.90
14741;DHT22;7462;53.530;9.414;2023-05-07T04:21:05;9.20;99.90
14741;DHT22;7462;53.530;9.414;2023-05-07T04:23:36;9.20;99.90
14741;DHT22;7462;53.530;9.414;2023-05-07T04:26:08;9.20;99.90
14741;DHT22;7462;53.530;9.414;2023-05-07T04:28:39;9.20;99.90
14741;DHT22;7462;53.530;9.414;2023-05-07T04:31:09;9.20;99.90
14741;DHT22;7462;53.530;9.414;2023-05-07T04:33:38;9.20;99.90
14741;DHT22;7462;53.530;9.414;2023-05-07T04:36:10;9.20;99.90
14741;DHT22;7462;53.530;9.414;2023-05-07T04:38:45;9.20;99.90
14741;DHT22;7462;53.530;9.414;2023-05-07T04:41:14;9.20;99.90
14741;DHT22;7462;53.530;9.414;2023-05-07T04:43:43;9.20;99.90
14741;DHT22;7462;53.530;9.414;2023-05-07T04:46:15;9.20;99.90
14741;DHT22;7462;53.530;9.414;2023-05-07T04:48:44;9.20;99.90
14741;DHT22;7462;53.530;9.414;2023-05-07T04:51:12;9.20;99.90
14741;DHT22;7462;53.530;9.414;2023-05-07T04:53:40;9.30;99.90
14741;DHT22;7462;53.530;9.414;2023-05-07T04:56:15;9.30;99.90
14741;DHT22;7462;53.530;9.414;2023-05-07T04:58:45;9.20;99.90
14741;DHT22;7462;53.530;9.414;2023-05-07T05:01:16;9.20;99.90
14741;DHT22;7462;53.530;9.414;2023-05-07T05:03:44;9.20;99.90
14741;DHT22;7462;53.530;9.414;2023-05-07T05:06:12;9.20;99.90
14741;DHT22;7462;53.530;9.414;2023-05-07T05:08:40;9.20;99.90
14741;DHT22;7462;53.530;9.414;2023-05-07T05:11:09;9.20;99.90
14741;DHT22;7462;53.530;9.414;2023-05-07T05:13:38;9.20;99.90
14741;DHT22;7462;53.530;9.414;2023-05-07T05:16:11;9.20;99.90
14741;DHT22;7462;53.530;9.414;2023-05-07T05:18:42;9.30;99.90
14741;DHT22;7462;53.530;9.414;2023-05-07T05:21:12;9.30;99.90
14741;DHT22;7462;53.530;9.414;2023-05-07T05:23:42;9.30;99.90
14741;DHT22;7462;53.530;9.414;2023-05-07T05:26:12;9.30;99.90
14741;DHT22;7462;53.530;9.414;2023-05-07T05:28:40;9.30;99.90
14741;DHT22;7462;53.530;9.414;2023-05-07T05:31:09;9.30;99.90
14741;DHT22;7462;53.530;9.414;2023-05-07T05:33:37;9.30;99.90
14741;DHT22;7462;53.530;9.414;2023-05-07T05:36:09;9.30;99.90
14741;DHT22;7462;53.530;9.414;2023-05-07T05:38:38;9.30;99.90
14741;DHT22;7462;53.530;9.414;2023-05-07T05:41:07;9.30;99.90
14741;DHT22;7462;53.530;9.414;2023-05-07T05:43:35;9.40;99.90
14741;DHT22;7462;53.530;9.414;2023-05-07T05:46:04;9.40;99.90
14741;DHT22;7462;53.530;9.414;2023-05-07T05:48:33;9.40;99.90
14741;DHT22;7462;53.530;9.414;2023-05-07T05:51:03;9.50;99.90
14741;DHT22;7462;53.530;9.414;2023-05-07T05:53:33;9.50;99.90
14741;DHT22;7462;53.530;9.414;2023-05-07T05:56:01;9.40;99.90
14741;DHT22;7462;53.530;9.414;2023-05-07T05:58:31;9.40;99.90
14741;DHT22;7462;53.530;9.414;2023-05-07T06:01:02;9.30;99.90
14741;DHT22;7462;53.530;9.414;2023-05-07T06:03:32;9.40;99.90
14741;DHT22;7462;53.530;9.414;2023-05-07T06:06:05;9.40;99.90
14741;DHT22;7462;53.530;9.414;2023-05-07T06:08:34;9.50;99.90
14741;DHT22;7462;53.530;9.414;2023-05-07T06:11:03;9.60;99.90
14741;DHT22;7462;53.530;9.414;2023-05-07T06:13:35;9.60;99.90
14741;DHT22;7462;53.530;9.414;2023-05-07T06:16:03;9.60;99.90
14741;DHT22;7462;53.530;9.414;2023-05-07T06:18:31;9.60;99.90
14741;DHT22;7462;53.530;9.414;2023-05-07T06:21:00;9.60;99.90
14741;DHT22;7462;53.530;9.414;2023-05-07T06:23:31;9.70;99.90
14741;DHT22;7462;53.530;9.414;2023-05-07T06:26:02;9.60;99.90
14741;DHT22;7462;53.530;9.414;2023-05-07T06:28:35;9.60;99.90
14741;DHT22;7462;53.530;9.414;2023-05-07T06:31:12;9.60;99.90
14741;DHT22;7462;53.530;9.414;2023-05-07T06:33:43;9.70;99.90
14741;DHT22;7462;53.530;9.414;2023-05-07T06:36:12;9.80;99.90
14741;DHT22;7462;53.530;9.414;2023-05-07T06:38:40;9.80;99.90
14741;DHT22;7462;53.530;9.414;2023-05-07T06:41:10;9.90;99.90
14741;DHT22;7462;53.530;9.414;2023-05-07T06:43:38;9.90;99.90
14741;DHT22;7462;53.530;9.414;2023-05-07T06:46:29;9.90;99.90
14741;DHT22;7462;53.530;9.414;2023-05-07T06:48:57;9.90;99.90
14741;DHT22;7462;53.530;9.414;2023-05-07T06:51:27;9.90;99.90
14741;DHT22;7462;53.530;9.414;2023-05-07T06:54:00;9.90;99.90
14741;DHT22;7462;53.530;9.414;2023-05-07T06:56:34;10.00;99.90
14741;DHT22;7462;53.530;9.414;2023-05-07T06:59:03;10.00;99.90
14741;DHT22;7462;53.530;9.414;2023-05-07T07:01:36;10.10;99.90
14741;DHT22;7462;53.530;9.414;2023-05-07T07:04:05;10.00;99.90
14741;DHT22;7462;53.530;9.414;2023-05-07T07:06:35;10.10;99.90
14741;DHT22;7462;53.530;9.414;2023-05-07T07:09:07;10.20;99.90
14741;DHT22;7462;53.530;9.414;2023-05-07T07:11:37;10.20;99.90
14741;DHT22;7462;53.530;9.414;2023-05-07T07:14:06;10.10;99.90
14741;DHT22;7462;53.530;9.414;2023-05-07T07:16:40;10.20;99.90
14741;DHT22;7462;53.530;9.414;2023-05-07T07:19:08;10.30;99.90
14741;DHT22;7462;53.530;9.414;2023-05-07T07:21:36;10.30;99.90
14741;DHT22;7462;53.530;9.414;2023-05-07T07:24:05;10.20;99.90
14741;DHT22;7462;53.530;9.414;2023-05-07T07:26:33;10.20;99.90
14741;DHT22;7462;53.530;9.414;2023-05-07T07:29:03;10.10;99.90
14741;DHT22;7462;53.530;9.414;2023-05-07T07:31:31;10.10;99.90
14741;DHT22;7462;53.530;9.414;2023-05-07T07:33:59;10.10;99.90
14741;DHT22;7462;53.530;9.414;2023-05-07T07:36:28;10.10;99.90
14741;DHT22;7462;53.530;9.414;2023-05-07T07:39:13;10.10;99.90
14741;DHT22;7462;53.530;9.414;2023-05-07T07:41:41;10.10;99.90
14741;DHT22;7462;53.530;9.414;2023-05-07T07:44:11;10.20;99.90
14741;DHT22;7462;53.530;9.414;2023-05-07T07:46:46;10.20;99.90
14741;DHT22;7462;53.530;9.414;2023-05-07T07:49:14;10.30;99.90
14741;DHT22;7462;53.530;9.414;2023-05-07T07:51:43;10.30;99.90
14741;DHT22;7462;53.530;9.414;2023-05-07T07:54:12;10.40;99.90
14741;DHT22;7462;53.530;9.414;2023-05-07T07:56:41;10.30;99.90
14741;DHT22;7462;53.530;9.414;2023-05-07T07:59:12;10.50;99.90
14741;DHT22;7462;53.530;9.414;2023-05-07T08:01:41;10.60;99.90
14741;DHT22;7462;53.530;9.414;2023-05-07T08:04:09;10.60;99.90
14741;DHT22;7462;53.530;9.414;2023-05-07T08:06:40;10.50;99.90
14741;DHT22;7462;53.530;9.414;2023-05-07T08:09:09;10.50;99.90
14741;DHT22;7462;53.530;9.414;2023-05-07T08:11:39;10.60;99.90
14741;DHT22;7462;53.530;9.414;2023-05-07T08:14:08;10.50;99.90
14741;DHT22;7462;53.530;9.414;2023-05-07T08:16:37;10.50;99.90
14741;DHT22;7462;53.530;9.414;2023-05-07T08:19:06;10.50;99.90
14741;DHT22;7462;53.530;9.414;2023-05-07T08:21:34;10.60;99.90
14741;DHT22;7462;53.530;9.414;2023-05-07T08:24:03;10.60;99.90
14741;DHT22;7462;53.530;9.414;2023-05-07T08:26:31;10.70;99.90
14741;DHT22;7462;53.530;9.414;2023-05-07T08:29:00;10.70;99.90
14741;DHT22;7462;53.530;9.414;2023-05-07T08:31:31;10.80;99.90
14741;DHT22;7462;53.530;9.414;2023-05-07T08:34:00;10.90;99.90
14741;DHT22;7462;53.530;9.414;2023-05-07T08:36:28;11.10;99.90
14741;DHT22;7462;53.530;9.414;2023-05-07T08:38:57;11.20;99.90
14741;DHT22;7462;53.530;9.414;2023-05-07T08:41:26;11.30;99.90
14741;DHT22;7462;53.530;9.414;2023-05-07T08:43:58;11.30;99.90
14741;DHT22;7462;53.530;9.414;2023-05-07T08:46:29;11.60;99.90
14741;DHT22;7462;53.530;9.414;2023-05-07T08:49:00;11.70;99.90
14741;DHT22;7462;53.530;9.414;2023-05-07T08:51:28;11.70;99.90
14741;DHT22;7462;53.530;9.414;2023-05-07T08:53:56;11.90;99.90
14741;DHT22;7462;53.530;9.414;2023-05-07T08:56:29;12.00;99.90
14741;DHT22;7462;53.530;9.414;2023-05-07T08:58:57;11.90;99.90
14741;DHT22;7462;53.530;9.414;2023-05-07T09:01:27;11.80;99.90
14741;DHT22;7462;53.530;9.414;2023-05-07T09:03:56;11.90;99.90
14741;DHT22;7462;53.530;9.414;2023-05-07T09:06:28;12.00;99.90
14741;DHT22;7462;53.530;9.414;2023-05-07T09:08:57;12.10;99.90
14741;DHT22;7462;53.530;9.414;2023-05-07T09:11:29;12.30;99.90
14741;DHT22;7462;53.530;9.414;2023-05-07T09:13:59;12.40;99.90
14741;DHT22;7462;53.530;9.414;2023-05-07T09:16:34;12.20;99.90
14741;DHT22;7462;53.530;9.414;2023-05-07T09:19:03;12.40;99.90
14741;DHT22;7462;53.530;9.414;2023-05-07T09:21:32;12.40;99.90
14741;DHT22;7462;53.530;9.414;2023-05-07T09:24:04;12.40;99.90
14741;DHT22;7462;53.530;9.414;2023-05-07T09:26:36;12.50;99.90
14741;DHT22;7462;53.530;9.414;2023-05-07T09:29:06;12.70;99.90
14741;DHT22;7462;53.530;9.414;2023-05-07T09:31:36;12.80;99.90
14741;DHT22;7462;53.530;9.414;2023-05-07T09:34:06;12.80;99.90
14741;DHT22;7462;53.530;9.414;2023-05-07T09:36:39;12.90;99.90
14741;DHT22;7462;53.530;9.414;2023-05-07T09:39:07;12.80;99.90
14741;DHT22;7462;53.530;9.414;2023-05-07T09:41:43;13.30;99.90
14741;DHT22;7462;53.530;9.414;2023-05-07T09:44:18;13.50;99.90
14741;DHT22;7462;53.530;9.414;2023-05-07T09:46:53;13.30;99.90
14741;DHT22;7462;53.530;9.414;2023-05-07T09:49:29;13.50;99.90
14741;DHT22;7462;53.530;9.414;2023-05-07T09:52:05;13.70;99.90
14741;DHT22;7462;53.530;9.414;2023-05-07T09:54:39;13.70;99.90
14741;DHT22;7462;53.530;9.414;2023-05-07T09:57:11;13.60;99.90
14741;DHT22;7462;53.530;9.414;2023-05-07T09:59:43;13.70;99.90
14741;DHT22;7462;53.530;9.414;2023-05-07T10:02:15;13.70;99.90
14741;DHT22;7462;53.530;9.414;2023-05-07T10:04:48;13.70;99.90
14741;DHT22;7462;53.530;9.414;2023-05-07T10:07:23;13.70;99.90
14741;DHT22;7462;53.530;9.414;2023-05-07T10:09:57;13.40;99.90
14741;DHT22;7462;53.530;9.414;2023-05-07T10:12:33;13.40;99.90
14741;DHT22;7462;53.530;9.414;2023-05-07T10:15:10;13.50;99.90
14741;DHT22;7462;53.530;9.414;2023-05-07T10:17:41;13.40;99.90
14741;DHT22;7462;53.530;9.414;2023-05-07T10:20:11;13.70;99.90
14741;DHT22;7462;53.530;9.414;2023-05-07T10:22:45;14.00;99.90
14741;DHT22;7462;53.530;9.414;2023-05-07T10:25:18;14.20;99.90
14741;DHT22;7462;53.530;9.414;2023-05-07T10:27:50;14.00;99.90
14741;DHT22;7462;53.530;9.414;2023-05-07T10:30:29;14.20;99.90
14741;DHT22;7462;53.530;9.414;2023-05-07T10:33:05;14.20;99.90
14741;DHT22;7462;53.530;9.414;2023-05-07T10:35:39;13.80;99.90
14741;DHT22;7462;53.530;9.414;2023-05-07T10:38:10;13.80;99.90
14741;DHT22;7462;53.530;9.414;2023-05-07T10:40:40;13.90;99.90
14741;DHT22;7462;53.530;9.414;2023-05-07T10:43:09;13.70;99.90
14741;DHT22;7462;53.530;9.414;2023-05-07T10:45:42;14.00;99.90
14741;DHT22;7462;53.530;9.414;2023-05-07T10:48:15;13.90;99.90
14741;DHT22;7462;53.530;9.414;2023-05-07T10:51:19;14.10;99.90
14741;DHT22;7462;53.530;9.414;2023-05-07T10:54:22;14.10;99.90
14741;DHT22;7462;53.530;9.414;2023-05-07T10:57:33;14.20;99.90
14741;DHT22;7462;53.530;9.414;2023-05-07T11:03:22;14.40;99.90
14741;DHT22;7462;53.530;9.414;2023-05-07T11:06:14;14.10;99.90
14741;DHT22;7462;53.530;9.414;2023-05-07T11:08:53;14.30;99.90
14741;DHT22;7462;53.530;9.414;2023-05-07T11:11:47;14.30;99.90
14741;DHT22;7462;53.530;9.414;2023-05-07T11:14:45;14.30;99.90
14741;DHT22;7462;53.530;9.414;2023-05-07T11:17:21;14.50;99.90
14741;DHT22;7462;53.530;9.414;2023-05-07T11:19:59;14.40;99.90
14741;DHT22;7462;53.530;9.414;2023-05-07T11:22:59;14.60;99.90
14741;DHT22;7462;53.530;9.414;2023-05-07T11:25:42;14.90;99.90
14741;DHT22;7462;53.530;9.414;2023-05-07T11:28:18;15.00;99.90
14741;DHT22;7462;53.530;9.414;2023-05-07T11:30:56;14.90;99.90
14741;DHT22;7462;53.530;9.414;2023-05-07T11:33:25;14.80;99.90
14741;DHT22;7462;53.530;9.414;2023-05-07T11:35:56;15.00;99.90
14741;DHT22;7462;53.530;9.414;2023-05-07T11:38:34;15.10;99.90
14741;DHT22;7462;53.530;9.414;2023-05-07T11:41:02;14.90;99.90
14741;DHT22;7462;53.530;9.414;2023-05-07T11:43:33;14.70;99.90
14741;DHT22;7462;53.530;9.414;2023-05-07T11:46:06;14.70;99.90
14741;DHT22;7462;53.530;9.414;2023-05-07T11:48:35;15.00;99.90
14741;DHT22;7462;53.530;9.414;2023-05-07T11:51:05;15.10;99.90
14741;DHT22;7462;53.530;9.414;2023-05-07T11:53:37;15.30;99.90
14741;DHT22;7462;53.530;9.414;2023-05-07T11:56:09;15.40;99.90
14741;DHT22;7462;53.530;9.414;2023-05-07T11:58:39;15.40;99.90
14741;DHT22;7462;53.530;9.414;2023-05-07T12:01:09;15.50;99.90
14741;DHT22;7462;53.530;9.414;2023-05-07T12:03:39;15.70;99.90
14741;DHT22;7462;53.530;9.414;2023-05-07T12:06:09;15.80;99.90
14741;DHT22;7462;53.530;9.414;2023-05-07T12:08:39;15.70;99.90
14741;DHT22;7462;53.530;9.414;2023-05-07T12:11:08;15.30;99.90
14741;DHT22;7462;53.530;9.414;2023-05-07T12:13:40;15.30;99.90
14741;DHT22;7462;53.530;9.414;2023-05-07T12:16:09;15.50;99.90
14741;DHT22;7462;53.530;9.414;2023-05-07T12:18:37;15.50;99.90
14741;DHT22;7462;53.530;9.414;2023-05-07T12:21:07;15.70;99.90
14741;DHT22;7462;53.530;9.414;2023-05-07T12:23:36;15.90;99.90
14741;DHT22;7462;53.530;9.414;2023-05-07T12:26:05;15.80;99.90
14741;DHT22;7462;53.530;9.414;2023-05-07T12:28:39;15.90;99.90
14741;DHT22;7462;53.530;9.414;2023-05-07T12:31:07;15.70;99.90
14741;DHT22;7462;53.530;9.414;2023-05-07T12:33:36;15.80;99.90
14741;DHT22;7462;53.530;9.414;2023-05-07T12:36:06;15.70;99.90
14741;DHT22;7462;53.530;9.414;2023-05-07T12:38:36;15.70;99.90
14741;DHT22;7462;53.530;9.414;2023-05-07T12:41:05;15.90;99.90
14741;DHT22;7462;53.530;9.414;2023-05-07T12:43:34;15.70;99.90
14741;DHT22;7462;53.530;9.414;2023-05-07T12:46:05;15.70;99.90
14741;DHT22;7462;53.530;9.414;2023-05-07T12:48:35;15.60;99.90
14741;DHT22;7462;53.530;9.414;2023-05-07T12:51:05;15.60;99.90
14741;DHT22;7462;53.530;9.414;2023-05-07T12:53:39;15.50;99.90
14741;DHT22;7462;53.530;9.414;2023-05-07T12:56:08;15.70;99.90
14741;DHT22;7462;53.530;9.414;2023-05-07T12:58:36;16.00;99.90
14741;DHT22;7462;53.530;9.414;2023-05-07T13:01:07;16.00;99.90
14741;DHT22;7462;53.530;9.414;2023-05-07T13:03:37;16.00;99.90
14741;DHT22;7462;53.530;9.414;2023-05-07T13:06:07;16.10;99.90
14741;DHT22;7462;53.530;9.414;2023-05-07T13:08:39;16.00;99.90
14741;DHT22;7462;53.530;9.414;2023-05-07T13:11:10;15.90;99.90
14741;DHT22;7462;53.530;9.414;2023-05-07T13:13:40;15.90;99.90
14741;DHT22;7462;53.530;9.414;2023-05-07T13:16:11;15.80;99.90
14741;DHT22;7462;53.530;9.414;2023-05-07T13:18:40;15.80;99.90
14741;DHT22;7462;53.530;9.414;2023-05-07T13:21:10;15.80;99.90
14741;DHT22;7462;53.530;9.414;2023-05-07T13:23:40;15.80;99.90
14741;DHT22;7462;53.530;9.414;2023-05-07T13:26:08;15.70;99.90
14741;DHT22;7462;53.530;9.414;2023-05-07T13:28:51;15.80;99.90
14741;DHT22;7462;53.530;9.414;2023-05-07T13:31:21;15.70;99.90
14741;DHT22;7462;53.530;9.414;2023-05-07T13:33:49;15.70;99.90
14741;DHT22;7462;53.530;9.414;2023-05-07T13:36:17;15.80;99.90
14741;DHT22;7462;53.530;9.414;2023-05-07T13:38:46;15.90;99.90
14741;DHT22;7462;53.530;9.414;2023-05-07T13:41:14;15.80;99.90
14741;DHT22;7462;53.530;9.414;2023-05-07T13:43:42;15.70;99.90
14741;DHT22;7462;53.530;9.414;2023-05-07T13:46:10;15.40;99.90
14741;DHT22;7462;53.530;9.414;2023-05-07T13:48:40;15.40;99.90
14741;DHT22;7462;53.530;9.414;2023-05-07T13:51:08;15.40;99.90
14741;DHT22;7462;53.530;9.414;2023-05-07T13:53:36;15.40;99.90
14741;DHT22;7462;53.530;9.414;2023-05-07T13:56:05;15.30;99.90
14741;DHT22;7462;53.530;9.414;2023-05-07T13:58:33;15.30;99.90
14741;DHT22;7462;53.530;9.414;2023-05-07T14:01:10;15.20;99.90
14741;DHT22;7462;53.530;9.414;2023-05-07T14:03:40;15.40;99.90
14741;DHT22;7462;53.530;9.414;2023-05-07T14:06:08;15.30;99.90
14741;DHT22;7462;53.530;9.414;2023-05-07T14:08:36;15.30;99.90
14741;DHT22;7462;53.530;9.414;2023-05-07T14:11:04;15.20;99.90
14741;DHT22;7462;53.530;9.414;2023-05-07T14:13:32;15.30;99.90
14741;DHT22;7462;53.530;9.414;2023-05-07T14:16:01;15.50;99.90
14741;DHT22;7462;53.530;9.414;2023-05-07T14:18:29;15.60;99.90
14741;DHT22;7462;53.530;9.414;2023-05-07T14:20:59;15.50;99.90
14741;DHT22;7462;53.530;9.414;2023-05-07T14:23:27;15.40;99.90
14741;DHT22;7462;53.530;9.414;2023-05-07T14:25:55;15.50;99.90
14741;DHT22;7462;53.530;9.414;2023-05-07T14:28:24;15.60;99.90
14741;DHT22;7462;53.530;9.414;2023-05-07T14:30:52;15.70;99.90
14741;DHT22;7462;53.530;9.414;2023-05-07T14:33:20;15.60;99.90
14741;DHT22;7462;53.530;9.414;2023-05-07T14:35:48;15.70;99.90
14741;DHT22;7462;53.530;9.414;2023-05-07T14:38:18;15.80;99.90
14741;DHT22;7462;53.530;9.414;2023-05-07T14:40:46;15.70;99.90
14741;DHT22;7462;53.530;9.414;2023-05-07T14:43:14;15.70;99.90
14741;DHT22;7462;53.530;9.414;2023-05-07T14:45:42;15.80;99.90
14741;DHT22;7462;53.530;9.414;2023-05-07T14:48:10;16.00;99.90
14741;DHT22;7462;53.530;9.414;2023-05-07T14:50:41;16.00;99.90
14741;DHT22;7462;53.530;9.414;2023-05-07T14:53:10;16.00;99.90
14741;DHT22;7462;53.530;9.414;2023-05-07T14:55:39;16.10;99.90
14741;DHT22;7462;53.530;9.414;2023-05-07T14:58:07;16.10;99.90
14741;DHT22;7462;53.530;9.414;2023-05-07T15:00:36;16.00;99.90
14741;DHT22;7462;53.530;9.414;2023-05-07T15:03:06;16.00;99.90
14741;DHT22;7462;53.530;9.414;2023-05-07T15:05:35;16.20;99.90
14741;DHT22;7462;53.530;9.414;2023-05-07T15:08:03;16.20;99.90
14741;DHT22;7462;53.530;9.414;2023-05-07T15:10:35;16.20;99.90
14741;DHT22;7462;53.530;9.414;2023-05-07T15:13:09;16.00;99.90
14741;DHT22;7462;53.530;9.414;2023-05-07T15:15:42;16.00;99.90
14741;DHT22;7462;53.530;9.414;2023-05-07T15:18:11;16.00;99.90
14741;DHT22;7462;53.530;9.414;2023-05-07T15:20:40;16.20;99.90
14741;DHT22;7462;53.530;9.414;2023-05-07T15:23:08;16.30;99.90
14741;DHT22;7462;53.530;9.414;2023-05-07T15:25:40;16.40;99.90
14741;DHT22;7462;53.530;9.414;2023-05-07T15:28:09;16.40;99.90
14741;DHT22;7462;53.530;9.414;2023-05-07T15:30:38;16.40;99.90
14741;DHT22;7462;53.530;9.414;2023-05-07T15:33:06;16.20;99.90
14741;DHT22;7462;53.530;9.414;2023-05-07T15:35:35;16.20;99.90
14741;DHT22;7462;53.530;9.414;2023-05-07T15:38:03;16.00;99.90
14741;DHT22;7462;53.530;9.414;2023-05-07T15:40:32;15.90;99.90
14741;DHT22;7462;53.530;9.414;2023-05-07T15:43:01;15.90;99.90
14741;DHT22;7462;53.530;9.414;2023-05-07T15:45:31;15.80;99.90
14741;DHT22;7462;53.530;9.414;2023-05-07T15:48:00;15.80;99.90
14741;DHT22;7462;53.530;9.414;2023-05-07T15:50:29;15.90;99.90
14741;DHT22;7462;53.530;9.414;2023-05-07T15:52:58;15.80;99.90
14741;DHT22;7462;53.530;9.414;2023-05-07T15:55:27;15.70;99.90
14741;DHT22;7462;53.530;9.414;2023-05-07T15:57:55;15.80;99.90
14741;DHT22;7462;53.530;9.414;2023-05-07T16:00:25;15.80;99.90
14741;DHT22;7462;53.530;9.414;2023-05-07T16:02:55;15.70;99.90
14741;DHT22;7462;53.530;9.414;2023-05-07T16:05:24;15.70;99.90
14741;DHT22;7462;53.530;9.414;2023-05-07T16:07:52;15.50;99.90
14741;DHT22;7462;53.530;9.414;2023-05-07T16:10:20;15.50;99.90
14741;DHT22;7462;53.530;9.414;2023-05-07T16:12:48;15.60;99.90
14741;DHT22;7462;53.530;9.414;2023-05-07T16:15:17;15.50;99.90
14741;DHT22;7462;53.530;9.414;2023-05-07T16:17:46;15.60;99.90